sensor_id;sensor_type;location;lat;lon;timestamp;P1;durP1;ratioP1;P2;durP2;ratioP2
8825;SDS011;4449;50.872;4.714;2022-08-19T00:02:24;11.38;;;10.27;;
8825;SDS011;4449;50.872;4.714;2022-08-19T00:04:52;12.95;;;10.95;;
8825;SDS011;4449;50.872;4.714;2022-08-19T00:07:20;12.07;;;10.77;;
8825;SDS011;4449;50.872;4.714;2022-08-19T00:09:49;11.38;;;10.30;;
8825;SDS011;4449;50.872;4.714;2022-08-19T00:12:16;10.55;;;9.57;;
8825;SDS011;4449;50.872;4.714;2022-08-19T00:14:44;11.38;;;10.38;;
8825;SDS011;4449;50.872;4.714;2022-08-19T00:17:12;12.07;;;10.77;;
8825;SDS011;4449;50.872;4.714;2022-08-19T00:19:40;11.67;;;10.63;;
8825;SDS011;4449;50.872;4.714;2022-08-19T00:22:07;12.98;;;11.77;;
8825;SDS011;4449;50.872;4.714;2022-08-19T00:24:35;12.85;;;11.55;;
8825;SDS011;4449;50.872;4.714;2022-08-19T00:27:05;13.73;;;12.43;;
8825;SDS011;4449;50.872;4.714;2022-08-19T00:29:32;14.50;;;12.95;;
8825;SDS011;4449;50.872;4.714;2022-08-19T00:32:00;13.70;;;12.32;;
8825;SDS011;4449;50.872;4.714;2022-08-19T00:34:28;13.93;;;12.48;;
8825;SDS011;4449;50.872;4.714;2022-08-19T00:36:56;14.05;;;12.65;;
8825;SDS011;4449;50.872;4.714;2022-08-19T00:39:25;15.23;;;13.02;;
8825;SDS011;4449;50.872;4.714;2022-08-19T00:41:52;14.32;;;12.88;;
8825;SDS011;4449;50.872;4.714;2022-08-19T00:44:22;15.38;;;12.68;;
8825;SDS011;4449;50.872;4.714;2022-08-19T00:46:50;15.90;;;13.17;;
8825;SDS011;4449;50.872;4.714;2022-08-19T00:49:19;15.52;;;13.93;;
8825;SDS011;4449;50.872;4.714;2022-08-19T00:51:48;15.35;;;13.80;;
8825;SDS011;4449;50.872;4.714;2022-08-19T00:54:17;16.53;;;14.50;;
8825;SDS011;4449;50.872;4.714;2022-08-19T00:56:46;15.65;;;13.68;;
8825;SDS011;4449;50.872;4.714;2022-08-19T00:59:15;15.90;;;13.65;;
8825;SDS011;4449;50.872;4.714;2022-08-19T01:01:45;17.30;;;14.68;;
8825;SDS011;4449;50.872;4.714;2022-08-19T01:04:13;19.77;;;16.30;;
8825;SDS011;4449;50.872;4.714;2022-08-19T01:06:41;18.42;;;15.65;;
8825;SDS011;4449;50.872;4.714;2022-08-19T01:09:09;23.55;;;16.45;;
8825;SDS011;4449;50.872;4.714;2022-08-19T01:11:39;20.42;;;16.83;;
8825;SDS011;4449;50.872;4.714;2022-08-19T01:14:07;20.58;;;16.58;;
8825;SDS011;4449;50.872;4.714;2022-08-19T01:16:35;20.88;;;16.70;;
8825;SDS011;4449;50.872;4.714;2022-08-19T01:19:05;24.05;;;19.08;;
8825;SDS011;4449;50.872;4.714;2022-08-19T01:21:39;25.02;;;19.08;;
8825;SDS011;4449;50.872;4.714;2022-08-19T01:24:09;27.73;;;19.98;;
8825;SDS011;4449;50.872;4.714;2022-08-19T01:26:38;31.13;;;20.77;;
8825;SDS011;4449;50.872;4.714;2022-08-19T01:29:08;28.15;;;20.98;;
8825;SDS011;4449;50.872;4.714;2022-08-19T01:31:35;30.53;;;21.40;;
8825;SDS011;4449;50.872;4.714;2022-08-19T01:34:04;30.37;;;21.50;;
8825;SDS011;4449;50.872;4.714;2022-08-19T01:36:34;28.92;;;22.35;;
8825;SDS011;4449;50.872;4.714;2022-08-19T01:39:04;31.17;;;22.58;;
8825;SDS011;4449;50.872;4.714;2022-08-19T01:41:34;34.30;;;23.00;;
8825;SDS011;4449;50.872;4.714;2022-08-19T01:44:03;32.00;;;22.60;;
8825;SDS011;4449;50.872;4.714;2022-08-19T01:46:31;34.17;;;24.17;;
8825;SDS011;4449;50.872;4.714;2022-08-19T01:48:59;31.98;;;22.35;;
8825;SDS011;4449;50.872;4.714;2022-08-19T01:51:26;34.65;;;23.75;;
8825;SDS011;4449;50.872;4.714;2022-08-19T01:53:55;34.47;;;24.65;;
8825;SDS011;4449;50.872;4.714;2022-08-19T01:56:23;33.35;;;24.52;;
8825;SDS011;4449;50.872;4.714;2022-08-19T01:58:53;32.60;;;23.60;;
8825;SDS011;4449;50.872;4.714;2022-08-19T02:01:21;34.65;;;23.52;;
8825;SDS011;4449;50.872;4.714;2022-08-19T02:03:49;33.35;;;24.38;;
8825;SDS011;4449;50.872;4.714;2022-08-19T02:06:18;35.80;;;25.02;;
8825;SDS011;4449;50.872;4.714;2022-08-19T02:08:46;38.03;;;25.63;;
8825;SDS011;4449;50.872;4.714;2022-08-19T02:11:18;36.38;;;25.35;;
8825;SDS011;4449;50.872;4.714;2022-08-19T02:13:47;39.23;;;25.03;;
8825;SDS011;4449;50.872;4.714;2022-08-19T02:16:17;36.15;;;24.30;;
8825;SDS011;4449;50.872;4.714;2022-08-19T02:18:45;34.88;;;24.58;;
8825;SDS011;4449;50.872;4.714;2022-08-19T02:21:14;35.35;;;24.65;;
8825;SDS011;4449;50.872;4.714;2022-08-19T02:23:42;38.72;;;25.17;;
8825;SDS011;4449;50.872;4.714;2022-08-19T02:26:09;35.08;;;24.88;;
8825;SDS011;4449;50.872;4.714;2022-08-19T02:28:37;35.00;;;24.23;;
8825;SDS011;4449;50.872;4.714;2022-08-19T02:31:08;33.45;;;23.80;;
8825;SDS011;4449;50.872;4.714;2022-08-19T02:33:37;38.20;;;25.45;;
8825;SDS011;4449;50.872;4.714;2022-08-19T02:36:05;37.60;;;24.60;;
8825;SDS011;4449;50.872;4.714;2022-08-19T02:38:33;35.73;;;23.70;;
8825;SDS011;4449;50.872;4.714;2022-08-19T02:41:01;31.63;;;23.20;;
8825;SDS011;4449;50.872;4.714;2022-08-19T02:43:30;34.83;;;23.92;;
8825;SDS011;4449;50.872;4.714;2022-08-19T02:46:01;38.90;;;23.88;;
8825;SDS011;4449;50.872;4.714;2022-08-19T02:48:29;37.20;;;24.50;;
8825;SDS011;4449;50.872;4.714;2022-08-19T02:50:59;34.63;;;24.27;;
8825;SDS011;4449;50.872;4.714;2022-08-19T02:53:27;34.75;;;23.15;;
8825;SDS011;4449;50.872;4.714;2022-08-19T02:55:55;32.63;;;23.52;;
8825;SDS011;4449;50.872;4.714;2022-08-19T02:58:23;32.63;;;22.53;;
8825;SDS011;4449;50.872;4.714;2022-08-19T03:00:52;31.92;;;22.02;;
8825;SDS011;4449;50.872;4.714;2022-08-19T03:03:20;33.70;;;23.55;;
8825;SDS011;4449;50.872;4.714;2022-08-19T03:05:48;32.67;;;23.67;;
8825;SDS011;4449;50.872;4.714;2022-08-19T03:08:17;33.43;;;24.00;;
8825;SDS011;4449;50.872;4.714;2022-08-19T03:10:46;33.80;;;23.33;;
8825;SDS011;4449;50.872;4.714;2022-08-19T03:13:15;32.55;;;23.27;;
8825;SDS011;4449;50.872;4.714;2022-08-19T03:15:44;34.28;;;23.15;;
8825;SDS011;4449;50.872;4.714;2022-08-19T03:18:12;34.03;;;23.80;;
8825;SDS011;4449;50.872;4.714;2022-08-19T03:20:41;33.65;;;23.77;;
8825;SDS011;4449;50.872;4.714;2022-08-19T03:23:09;34.15;;;23.65;;
8825;SDS011;4449;50.872;4.714;2022-08-19T03:25:39;34.03;;;23.67;;
8825;SDS011;4449;50.872;4.714;2022-08-19T03:28:09;36.20;;;23.90;;
8825;SDS011;4449;50.872;4.714;2022-08-19T03:30:37;34.30;;;23.85;;
8825;SDS011;4449;50.872;4.714;2022-08-19T03:33:06;34.25;;;23.65;;
8825;SDS011;4449;50.872;4.714;2022-08-19T03:35:34;34.33;;;23.70;;
8825;SDS011;4449;50.872;4.714;2022-08-19T03:38:02;33.58;;;23.20;;
8825;SDS011;4449;50.872;4.714;2022-08-19T03:40:31;37.10;;;23.88;;
8825;SDS011;4449;50.872;4.714;2022-08-19T03:43:01;32.70;;;23.80;;
8825;SDS011;4449;50.872;4.714;2022-08-19T03:45:29;32.05;;;22.95;;
8825;SDS011;4449;50.872;4.714;2022-08-19T03:47:57;33.15;;;22.98;;
8825;SDS011;4449;50.872;4.714;2022-08-19T03:50:24;30.52;;;21.92;;
8825;SDS011;4449;50.872;4.714;2022-08-19T03:52:52;31.52;;;22.48;;
8825;SDS011;4449;50.872;4.714;2022-08-19T03:55:20;29.45;;;22.15;;
8825;SDS011;4449;50.872;4.714;2022-08-19T03:57:48;30.52;;;21.83;;
8825;SDS011;4449;50.872;4.714;2022-08-19T04:00:17;28.13;;;20.95;;
8825;SDS011;4449;50.872;4.714;2022-08-19T04:02:44;28.27;;;21.00;;
8825;SDS011;4449;50.872;4.714;2022-08-19T04:05:12;27.50;;;20.20;;
8825;SDS011;4449;50.872;4.714;2022-08-19T04:07:40;27.83;;;20.02;;
8825;SDS011;4449;50.872;4.714;2022-08-19T04:10:08;27.73;;;19.52;;
8825;SDS011;4449;50.872;4.714;2022-08-19T04:12:36;28.55;;;19.92;;
8825;SDS011;4449;50.872;4.714;2022-08-19T04:15:05;27.83;;;20.02;;
8825;SDS011;4449;50.872;4.714;2022-08-19T04:17:35;26.08;;;18.90;;
8825;SDS011;4449;50.872;4.714;2022-08-19T04:20:03;24.60;;;18.13;;
8825;SDS011;4449;50.872;4.714;2022-08-19T04:22:31;25.52;;;18.75;;
8825;SDS011;4449;50.872;4.714;2022-08-19T04:24:58;27.73;;;18.95;;
8825;SDS011;4449;50.872;4.714;2022-08-19T04:27:26;24.45;;;18.10;;
8825;SDS011;4449;50.872;4.714;2022-08-19T04:29:54;25.55;;;18.52;;
8825;SDS011;4449;50.872;4.714;2022-08-19T04:32:22;24.38;;;18.42;;
8825;SDS011;4449;50.872;4.714;2022-08-19T04:34:51;25.63;;;18.73;;
8825;SDS011;4449;50.872;4.714;2022-08-19T04:37:24;25.67;;;17.40;;
8825;SDS011;4449;50.872;4.714;2022-08-19T04:39:51;25.75;;;18.77;;
8825;SDS011;4449;50.872;4.714;2022-08-19T04:42:37;24.35;;;17.80;;
8825;SDS011;4449;50.872;4.714;2022-08-19T04:45:09;24.55;;;17.80;;
8825;SDS011;4449;50.872;4.714;2022-08-19T04:47:37;24.02;;;17.00;;
8825;SDS011;4449;50.872;4.714;2022-08-19T04:50:07;25.17;;;17.25;;
8825;SDS011;4449;50.872;4.714;2022-08-19T04:52:37;26.48;;;17.48;;
8825;SDS011;4449;50.872;4.714;2022-08-19T04:55:08;24.10;;;17.30;;
8825;SDS011;4449;50.872;4.714;2022-08-19T04:57:36;21.52;;;16.08;;
8825;SDS011;4449;50.872;4.714;2022-08-19T05:00:06;25.05;;;17.25;;
8825;SDS011;4449;50.872;4.714;2022-08-19T05:02:34;24.40;;;16.48;;
8825;SDS011;4449;50.872;4.714;2022-08-19T05:05:02;23.75;;;16.92;;
8825;SDS011;4449;50.872;4.714;2022-08-19T05:07:33;25.65;;;17.20;;
8825;SDS011;4449;50.872;4.714;2022-08-19T05:10:01;23.40;;;17.67;;
8825;SDS011;4449;50.872;4.714;2022-08-19T05:12:29;21.50;;;16.63;;
8825;SDS011;4449;50.872;4.714;2022-08-19T05:14:57;23.98;;;15.75;;
8825;SDS011;4449;50.872;4.714;2022-08-19T05:17:26;21.80;;;15.80;;
8825;SDS011;4449;50.872;4.714;2022-08-19T05:19:54;25.63;;;16.90;;
8825;SDS011;4449;50.872;4.714;2022-08-19T05:22:41;23.58;;;15.90;;
8825;SDS011;4449;50.872;4.714;2022-08-19T05:25:11;23.45;;;16.55;;
8825;SDS011;4449;50.872;4.714;2022-08-19T05:27:39;14.82;;;11.18;;
8825;SDS011;4449;50.872;4.714;2022-08-19T05:30:07;21.73;;;15.20;;
8825;SDS011;4449;50.872;4.714;2022-08-19T05:32:35;25.20;;;16.90;;
8825;SDS011;4449;50.872;4.714;2022-08-19T05:35:04;23.88;;;16.55;;
8825;SDS011;4449;50.872;4.714;2022-08-19T05:37:32;23.80;;;16.13;;
8825;SDS011;4449;50.872;4.714;2022-08-19T05:40:03;25.05;;;16.50;;
8825;SDS011;4449;50.872;4.714;2022-08-19T05:42:31;24.27;;;16.70;;
8825;SDS011;4449;50.872;4.714;2022-08-19T05:44:58;24.20;;;16.80;;
8825;SDS011;4449;50.872;4.714;2022-08-19T05:47:26;24.65;;;17.33;;
8825;SDS011;4449;50.872;4.714;2022-08-19T05:49:54;25.33;;;17.42;;
8825;SDS011;4449;50.872;4.714;2022-08-19T05:52:21;26.98;;;17.80;;
8825;SDS011;4449;50.872;4.714;2022-08-19T05:54:49;25.25;;;16.88;;
8825;SDS011;4449;50.872;4.714;2022-08-19T05:57:18;25.88;;;16.58;;
8825;SDS011;4449;50.872;4.714;2022-08-19T05:59:46;25.42;;;16.45;;
8825;SDS011;4449;50.872;4.714;2022-08-19T06:02:16;26.45;;;17.20;;
8825;SDS011;4449;50.872;4.714;2022-08-19T06:04:44;21.67;;;15.15;;
8825;SDS011;4449;50.872;4.714;2022-08-19T06:07:12;25.88;;;16.98;;
8825;SDS011;4449;50.872;4.714;2022-08-19T06:09:40;27.10;;;17.55;;
8825;SDS011;4449;50.872;4.714;2022-08-19T06:12:08;23.83;;;16.10;;
8825;SDS011;4449;50.872;4.714;2022-08-19T06:14:37;21.85;;;15.30;;
8825;SDS011;4449;50.872;4.714;2022-08-19T06:17:06;25.42;;;15.65;;
8825;SDS011;4449;50.872;4.714;2022-08-19T06:19:34;23.52;;;15.85;;
8825;SDS011;4449;50.872;4.714;2022-08-19T06:22:06;24.95;;;16.38;;
8825;SDS011;4449;50.872;4.714;2022-08-19T06:24:34;23.95;;;16.08;;
8825;SDS011;4449;50.872;4.714;2022-08-19T06:27:02;22.67;;;15.75;;
8825;SDS011;4449;50.872;4.714;2022-08-19T06:29:30;21.35;;;15.20;;
8825;SDS011;4449;50.872;4.714;2022-08-19T06:32:01;23.15;;;15.60;;
8825;SDS011;4449;50.872;4.714;2022-08-19T06:34:31;21.02;;;15.00;;
8825;SDS011;4449;50.872;4.714;2022-08-19T06:36:59;23.00;;;15.10;;
8825;SDS011;4449;50.872;4.714;2022-08-19T06:39:28;23.20;;;15.03;;
8825;SDS011;4449;50.872;4.714;2022-08-19T06:41:57;23.65;;;14.70;;
8825;SDS011;4449;50.872;4.714;2022-08-19T06:44:26;18.70;;;13.65;;
8825;SDS011;4449;50.872;4.714;2022-08-19T06:46:54;21.25;;;13.98;;
8825;SDS011;4449;50.872;4.714;2022-08-19T06:49:24;19.27;;;13.47;;
8825;SDS011;4449;50.872;4.714;2022-08-19T06:51:56;19.75;;;13.35;;
8825;SDS011;4449;50.872;4.714;2022-08-19T06:54:25;19.93;;;13.67;;
8825;SDS011;4449;50.872;4.714;2022-08-19T06:56:53;22.65;;;12.93;;
8825;SDS011;4449;50.872;4.714;2022-08-19T06:59:21;18.02;;;12.82;;
8825;SDS011;4449;50.872;4.714;2022-08-19T07:01:53;18.55;;;12.90;;
8825;SDS011;4449;50.872;4.714;2022-08-19T07:04:22;18.27;;;12.20;;
8825;SDS011;4449;50.872;4.714;2022-08-19T07:06:56;15.50;;;11.68;;
8825;SDS011;4449;50.872;4.714;2022-08-19T07:09:24;16.02;;;11.48;;
8825;SDS011;4449;50.872;4.714;2022-08-19T07:11:52;17.83;;;11.30;;
8825;SDS011;4449;50.872;4.714;2022-08-19T07:14:20;16.15;;;11.23;;
8825;SDS011;4449;50.872;4.714;2022-08-19T07:16:49;14.90;;;10.30;;
8825;SDS011;4449;50.872;4.714;2022-08-19T07:19:19;14.05;;;9.77;;
8825;SDS011;4449;50.872;4.714;2022-08-19T07:21:46;11.33;;;9.83;;
8825;SDS011;4449;50.872;4.714;2022-08-19T07:24:16;11.75;;;9.23;;
8825;SDS011;4449;50.872;4.714;2022-08-19T07:26:44;11.32;;;9.38;;
8825;SDS011;4449;50.872;4.714;2022-08-19T07:29:12;13.90;;;9.05;;
8825;SDS011;4449;50.872;4.714;2022-08-19T07:31:42;12.25;;;9.25;;
8825;SDS011;4449;50.872;4.714;2022-08-19T07:34:10;12.95;;;8.90;;
8825;SDS011;4449;50.872;4.714;2022-08-19T07:36:39;10.10;;;7.97;;
8825;SDS011;4449;50.872;4.714;2022-08-19T07:39:08;9.90;;;7.80;;
8825;SDS011;4449;50.872;4.714;2022-08-19T07:41:38;11.55;;;7.93;;
8825;SDS011;4449;50.872;4.714;2022-08-19T07:44:06;9.87;;;7.00;;
8825;SDS011;4449;50.872;4.714;2022-08-19T07:46:35;8.07;;;7.28;;
8825;SDS011;4449;50.872;4.714;2022-08-19T07:49:03;6.85;;;5.72;;
8825;SDS011;4449;50.872;4.714;2022-08-19T07:51:31;8.60;;;5.85;;
8825;SDS011;4449;50.872;4.714;2022-08-19T07:53:58;7.80;;;5.78;;
8825;SDS011;4449;50.872;4.714;2022-08-19T07:56:26;5.55;;;5.00;;
8825;SDS011;4449;50.872;4.714;2022-08-19T07:58:55;5.68;;;5.10;;
8825;SDS011;4449;50.872;4.714;2022-08-19T08:01:24;5.87;;;4.67;;
8825;SDS011;4449;50.872;4.714;2022-08-19T08:03:53;5.90;;;4.97;;
8825;SDS011;4449;50.872;4.714;2022-08-19T08:06:38;6.10;;;4.82;;
8825;SDS011;4449;50.872;4.714;2022-08-19T08:09:25;5.80;;;4.53;;
8825;SDS011;4449;50.872;4.714;2022-08-19T08:11:53;5.45;;;4.00;;
8825;SDS011;4449;50.872;4.714;2022-08-19T08:14:24;4.70;;;3.93;;
8825;SDS011;4449;50.872;4.714;2022-08-19T08:16:52;4.47;;;4.07;;
8825;SDS011;4449;50.872;4.714;2022-08-19T08:19:21;6.55;;;4.25;;
8825;SDS011;4449;50.872;4.714;2022-08-19T08:21:50;4.32;;;3.95;;
8825;SDS011;4449;50.872;4.714;2022-08-19T08:24:18;4.47;;;4.07;;
8825;SDS011;4449;50.872;4.714;2022-08-19T08:26:46;6.78;;;3.92;;
8825;SDS011;4449;50.872;4.714;2022-08-19T08:29:13;4.95;;;4.57;;
8825;SDS011;4449;50.872;4.714;2022-08-19T08:31:43;4.22;;;4.00;;
8825;SDS011;4449;50.872;4.714;2022-08-19T08:34:11;5.03;;;4.53;;
8825;SDS011;4449;50.872;4.714;2022-08-19T08:36:41;5.32;;;4.80;;
8825;SDS011;4449;50.872;4.714;2022-08-19T08:39:10;5.20;;;4.22;;
8825;SDS011;4449;50.872;4.714;2022-08-19T08:41:40;4.47;;;4.13;;
8825;SDS011;4449;50.872;4.714;2022-08-19T08:44:11;5.80;;;5.30;;
8825;SDS011;4449;50.872;4.714;2022-08-19T08:46:44;5.57;;;4.53;;
8825;SDS011;4449;50.872;4.714;2022-08-19T08:49:15;5.20;;;4.20;;
8825;SDS011;4449;50.872;4.714;2022-08-19T08:51:46;4.65;;;4.30;;
8825;SDS011;4449;50.872;4.714;2022-08-19T08:54:17;5.47;;;4.23;;
8825;SDS011;4449;50.872;4.714;2022-08-19T08:56:45;5.55;;;4.40;;
8825;SDS011;4449;50.872;4.714;2022-08-19T08:59:16;4.78;;;4.28;;
8825;SDS011;4449;50.872;4.714;2022-08-19T09:01:47;6.28;;;4.25;;
8825;SDS011;4449;50.872;4.714;2022-08-19T09:04:15;5.60;;;4.93;;
8825;SDS011;4449;50.872;4.714;2022-08-19T09:06:49;4.25;;;3.85;;
8825;SDS011;4449;50.872;4.714;2022-08-19T09:09:20;4.30;;;4.00;;
8825;SDS011;4449;50.872;4.714;2022-08-19T09:11:55;4.40;;;4.00;;
8825;SDS011;4449;50.872;4.714;2022-08-19T09:14:31;7.20;;;4.05;;
8825;SDS011;4449;50.872;4.714;2022-08-19T09:17:00;5.50;;;4.10;;
8825;SDS011;4449;50.872;4.714;2022-08-19T09:19:33;4.20;;;3.90;;
8825;SDS011;4449;50.872;4.714;2022-08-19T09:22:01;3.80;;;3.50;;
8825;SDS011;4449;50.872;4.714;2022-08-19T09:24:30;3.72;;;3.40;;
8825;SDS011;4449;50.872;4.714;2022-08-19T09:26:58;4.45;;;3.83;;
8825;SDS011;4449;50.872;4.714;2022-08-19T09:29:26;3.65;;;3.35;;
8825;SDS011;4449;50.872;4.714;2022-08-19T09:31:55;3.85;;;3.47;;
8825;SDS011;4449;50.872;4.714;2022-08-19T09:34:24;5.63;;;3.50;;
8825;SDS011;4449;50.872;4.714;2022-08-19T09:36:53;6.25;;;4.03;;
8825;SDS011;4449;50.872;4.714;2022-08-19T09:39:23;3.70;;;3.50;;
8825;SDS011;4449;50.872;4.714;2022-08-19T09:41:51;4.53;;;3.67;;
8825;SDS011;4449;50.872;4.714;2022-08-19T09:44:19;4.40;;;3.45;;
8825;SDS011;4449;50.872;4.714;2022-08-19T09:46:47;3.80;;;3.40;;
8825;SDS011;4449;50.872;4.714;2022-08-19T09:49:16;3.10;;;2.90;;
8825;SDS011;4449;50.872;4.714;2022-08-19T09:51:46;3.03;;;2.83;;
8825;SDS011;4449;50.872;4.714;2022-08-19T09:54:16;3.15;;;2.85;;
8825;SDS011;4449;50.872;4.714;2022-08-19T09:56:44;4.35;;;2.90;;
8825;SDS011;4449;50.872;4.714;2022-08-19T09:59:12;2.80;;;2.60;;
8825;SDS011;4449;50.872;4.714;2022-08-19T10:01:40;2.95;;;2.72;;
8825;SDS011;4449;50.872;4.714;2022-08-19T10:04:08;3.60;;;3.40;;
8825;SDS011;4449;50.872;4.714;2022-08-19T10:06:36;8.33;;;3.20;;
8825;SDS011;4449;50.872;4.714;2022-08-19T10:09:06;3.85;;;3.50;;
8825;SDS011;4449;50.872;4.714;2022-08-19T10:11:35;3.83;;;3.42;;
8825;SDS011;4449;50.872;4.714;2022-08-19T10:14:03;3.55;;;3.20;;
8825;SDS011;4449;50.872;4.714;2022-08-19T10:16:32;4.10;;;3.13;;
8825;SDS011;4449;50.872;4.714;2022-08-19T10:19:00;4.18;;;3.70;;
8825;SDS011;4449;50.872;4.714;2022-08-19T10:21:28;3.40;;;3.13;;
8825;SDS011;4449;50.872;4.714;2022-08-19T10:23:57;3.55;;;3.35;;
8825;SDS011;4449;50.872;4.714;2022-08-19T10:26:28;3.80;;;3.50;;
8825;SDS011;4449;50.872;4.714;2022-08-19T10:28:56;3.70;;;3.40;;
8825;SDS011;4449;50.872;4.714;2022-08-19T10:31:26;3.60;;;3.30;;
8825;SDS011;4449;50.872;4.714;2022-08-19T10:33:54;4.97;;;3.55;;
8825;SDS011;4449;50.872;4.714;2022-08-19T10:36:23;3.33;;;3.13;;
8825;SDS011;4449;50.872;4.714;2022-08-19T10:38:51;4.57;;;3.17;;
8825;SDS011;4449;50.872;4.714;2022-08-19T10:41:20;3.60;;;3.10;;
8825;SDS011;4449;50.872;4.714;2022-08-19T10:43:51;3.63;;;3.25;;
8825;SDS011;4449;50.872;4.714;2022-08-19T10:46:20;4.38;;;3.70;;
8825;SDS011;4449;50.872;4.714;2022-08-19T10:48:48;3.45;;;3.13;;
8825;SDS011;4449;50.872;4.714;2022-08-19T10:51:16;4.22;;;3.67;;
8825;SDS011;4449;50.872;4.714;2022-08-19T11:51:20;3.40;;;3.15;;
8825;SDS011;4449;50.872;4.714;2022-08-19T11:53:50;3.50;;;3.30;;
8825;SDS011;4449;50.872;4.714;2022-08-19T11:56:18;4.83;;;3.73;;
8825;SDS011;4449;50.872;4.714;2022-08-19T11:58:46;4.97;;;3.40;;
8825;SDS011;4449;50.872;4.714;2022-08-19T12:01:14;4.93;;;3.37;;
8825;SDS011;4449;50.872;4.714;2022-08-19T12:03:42;3.65;;;3.03;;
8825;SDS011;4449;50.872;4.714;2022-08-19T12:06:11;4.35;;;3.80;;
8825;SDS011;4449;50.872;4.714;2022-08-19T12:08:41;3.95;;;3.65;;
8825;SDS011;4449;50.872;4.714;2022-08-19T12:11:09;4.10;;;3.80;;
8825;SDS011;4449;50.872;4.714;2022-08-19T12:13:37;5.63;;;4.40;;
8825;SDS011;4449;50.872;4.714;2022-08-19T12:16:07;4.82;;;4.43;;
8825;SDS011;4449;50.872;4.714;2022-08-19T12:18:36;4.93;;;4.30;;
8825;SDS011;4449;50.872;4.714;2022-08-19T12:21:04;4.85;;;4.45;;
8825;SDS011;4449;50.872;4.714;2022-08-19T12:23:31;5.20;;;4.80;;
8825;SDS011;4449;50.872;4.714;2022-08-19T12:26:01;6.13;;;5.53;;
8825;SDS011;4449;50.872;4.714;2022-08-19T12:28:29;6.18;;;5.45;;
8825;SDS011;4449;50.872;4.714;2022-08-19T12:30:57;5.70;;;5.20;;
8825;SDS011;4449;50.872;4.714;2022-08-19T12:33:24;5.75;;;5.13;;
8825;SDS011;4449;50.872;4.714;2022-08-19T12:35:53;5.85;;;5.05;;
8825;SDS011;4449;50.872;4.714;2022-08-19T12:38:21;7.03;;;5.03;;
8825;SDS011;4449;50.872;4.714;2022-08-19T12:40:49;5.90;;;4.90;;
8825;SDS011;4449;50.872;4.714;2022-08-19T12:43:19;5.38;;;4.88;;
8825;SDS011;4449;50.872;4.714;2022-08-19T12:45:47;5.72;;;5.28;;
8825;SDS011;4449;50.872;4.714;2022-08-19T12:48:15;5.43;;;5.05;;
8825;SDS011;4449;50.872;4.714;2022-08-19T12:50:44;5.03;;;4.72;;
8825;SDS011;4449;50.872;4.714;2022-08-19T12:53:12;5.38;;;4.97;;
8825;SDS011;4449;50.872;4.714;2022-08-19T12:55:40;5.43;;;5.03;;
8825;SDS011;4449;50.872;4.714;2022-08-19T12:58:08;4.93;;;4.50;;
8825;SDS011;4449;50.872;4.714;2022-08-19T13:00:39;5.65;;;4.70;;
8825;SDS011;4449;50.872;4.714;2022-08-19T13:03:07;4.87;;;4.47;;
8825;SDS011;4449;50.872;4.714;2022-08-19T13:05:35;4.65;;;4.25;;
8825;SDS011;4449;50.872;4.714;2022-08-19T13:08:02;4.70;;;4.30;;
8825;SDS011;4449;50.872;4.714;2022-08-19T13:10:32;4.55;;;4.25;;
8825;SDS011;4449;50.872;4.714;2022-08-19T13:13:00;4.20;;;3.80;;
8825;SDS011;4449;50.872;4.714;2022-08-19T13:15:28;4.13;;;3.80;;
8825;SDS011;4449;50.872;4.714;2022-08-19T13:17:58;4.07;;;3.83;;
8825;SDS011;4449;50.872;4.714;2022-08-19T13:20:25;3.95;;;3.60;;
8825;SDS011;4449;50.872;4.714;2022-08-19T13:22:54;3.95;;;3.65;;
8825;SDS011;4449;50.872;4.714;2022-08-19T13:25:22;3.90;;;3.70;;
8825;SDS011;4449;50.872;4.714;2022-08-19T13:27:50;4.82;;;4.50;;
8825;SDS011;4449;50.872;4.714;2022-08-19T13:30:18;4.30;;;4.00;;
8825;SDS011;4449;50.872;4.714;2022-08-19T13:33:05;4.20;;;3.80;;
8825;SDS011;4449;50.872;4.714;2022-08-19T13:35:37;3.95;;;3.30;;
8825;SDS011;4449;50.872;4.714;2022-08-19T13:38:05;3.47;;;3.28;;
8825;SDS011;4449;50.872;4.714;2022-08-19T13:40:33;2.92;;;2.80;;
8825;SDS011;4449;50.872;4.714;2022-08-19T13:43:01;2.90;;;2.70;;
8825;SDS011;4449;50.872;4.714;2022-08-19T13:45:30;2.60;;;2.47;;
8825;SDS011;4449;50.872;4.714;2022-08-19T13:47:59;5.35;;;2.78;;
8825;SDS011;4449;50.872;4.714;2022-08-19T13:50:33;2.60;;;2.40;;
8825;SDS011;4449;50.872;4.714;2022-08-19T13:53:01;2.40;;;2.30;;
8825;SDS011;4449;50.872;4.714;2022-08-19T13:55:29;2.17;;;2.00;;
8825;SDS011;4449;50.872;4.714;2022-08-19T13:57:58;2.30;;;1.80;;
8825;SDS011;4449;50.872;4.714;2022-08-19T14:00:28;2.58;;;1.77;;
8825;SDS011;4449;50.872;4.714;2022-08-19T14:02:56;1.92;;;1.73;;
8825;SDS011;4449;50.872;4.714;2022-08-19T14:05:25;3.22;;;2.00;;
8825;SDS011;4449;50.872;4.714;2022-08-19T14:07:55;1.40;;;1.40;;
8825;SDS011;4449;50.872;4.714;2022-08-19T14:10:22;1.63;;;1.63;;
8825;SDS011;4449;50.872;4.714;2022-08-19T14:12:52;1.60;;;1.60;;
8825;SDS011;4449;50.872;4.714;2022-08-19T14:15:21;2.83;;;1.58;;
8825;SDS011;4449;50.872;4.714;2022-08-19T14:17:49;1.88;;;1.77;;
8825;SDS011;4449;50.872;4.714;2022-08-19T14:20:17;1.83;;;1.80;;
8825;SDS011;4449;50.872;4.714;2022-08-19T14:22:45;1.58;;;1.58;;
8825;SDS011;4449;50.872;4.714;2022-08-19T14:25:16;1.77;;;1.67;;
8825;SDS011;4449;50.872;4.714;2022-08-19T14:27:44;2.00;;;1.90;;
8825;SDS011;4449;50.872;4.714;2022-08-19T14:30:13;1.80;;;1.70;;
8825;SDS011;4449;50.872;4.714;2022-08-19T14:32:41;1.38;;;1.33;;
8825;SDS011;4449;50.872;4.714;2022-08-19T14:35:10;1.60;;;1.50;;
8825;SDS011;4449;50.872;4.714;2022-08-19T14:37:39;1.55;;;1.45;;
8825;SDS011;4449;50.872;4.714;2022-08-19T14:40:08;1.40;;;1.40;;
8825;SDS011;4449;50.872;4.714;2022-08-19T14:42:38;1.40;;;1.35;;
8825;SDS011;4449;50.872;4.714;2022-08-19T14:45:06;1.50;;;1.50;;
8825;SDS011;4449;50.872;4.714;2022-08-19T14:47:34;1.35;;;1.35;;
8825;SDS011;4449;50.872;4.714;2022-08-19T14:50:04;1.63;;;1.60;;
8825;SDS011;4449;50.872;4.714;2022-08-19T14:52:32;1.85;;;1.50;;
8825;SDS011;4449;50.872;4.714;2022-08-19T14:55:00;1.70;;;1.60;;
8825;SDS011;4449;50.872;4.714;2022-08-19T14:57:28;2.30;;;1.48;;
8825;SDS011;4449;50.872;4.714;2022-08-19T14:59:58;1.45;;;1.40;;
8825;SDS011;4449;50.872;4.714;2022-08-19T15:02:26;1.42;;;1.42;;
8825;SDS011;4449;50.872;4.714;2022-08-19T15:04:53;1.53;;;1.43;;
8825;SDS011;4449;50.872;4.714;2022-08-19T15:07:21;1.57;;;1.40;;
8825;SDS011;4449;50.872;4.714;2022-08-19T15:09:49;1.38;;;1.20;;
8825;SDS011;4449;50.872;4.714;2022-08-19T15:12:17;1.40;;;1.40;;
8825;SDS011;4449;50.872;4.714;2022-08-19T15:14:45;2.10;;;1.50;;
8825;SDS011;4449;50.872;4.714;2022-08-19T15:17:17;2.72;;;1.95;;
8825;SDS011;4449;50.872;4.714;2022-08-19T15:19:45;1.95;;;1.85;;
8825;SDS011;4449;50.872;4.714;2022-08-19T15:22:13;2.72;;;2.53;;
8825;SDS011;4449;50.872;4.714;2022-08-19T15:24:40;1.60;;;1.50;;
8825;SDS011;4449;50.872;4.714;2022-08-19T15:27:11;1.35;;;1.30;;
8825;SDS011;4449;50.872;4.714;2022-08-19T15:29:39;1.10;;;1.10;;
8825;SDS011;4449;50.872;4.714;2022-08-19T15:32:07;1.10;;;0.88;;
8825;SDS011;4449;50.872;4.714;2022-08-19T15:34:36;1.13;;;1.00;;
8825;SDS011;4449;50.872;4.714;2022-08-19T15:37:04;0.60;;;0.60;;
8825;SDS011;4449;50.872;4.714;2022-08-19T15:39:32;0.85;;;0.85;;
8825;SDS011;4449;50.872;4.714;2022-08-19T15:41:59;0.70;;;0.70;;
8825;SDS011;4449;50.872;4.714;2022-08-19T15:44:28;2.20;;;0.80;;
8825;SDS011;4449;50.872;4.714;2022-08-19T15:46:56;0.85;;;0.85;;
8825;SDS011;4449;50.872;4.714;2022-08-19T15:49:23;0.68;;;0.68;;
8825;SDS011;4449;50.872;4.714;2022-08-19T15:51:53;0.80;;;0.80;;
8825;SDS011;4449;50.872;4.714;2022-08-19T15:54:22;0.70;;;0.70;;
8825;SDS011;4449;50.872;4.714;2022-08-19T15:56:50;0.80;;;0.80;;
8825;SDS011;4449;50.872;4.714;2022-08-19T15:59:32;0.70;;;0.70;;
8825;SDS011;4449;50.872;4.714;2022-08-19T16:02:18;0.80;;;0.80;;
8825;SDS011;4449;50.872;4.714;2022-08-19T16:05:10;0.65;;;0.65;;
8825;SDS011;4449;50.872;4.714;2022-08-19T16:07:57;1.13;;;1.00;;
8825;SDS011;4449;50.872;4.714;2022-08-19T16:10:25;0.70;;;0.70;;
8825;SDS011;4449;50.872;4.714;2022-08-19T16:12:53;0.90;;;0.90;;